Main page
METAR-TAF:

METAR-TAF

Airports :

Porter County Regional Airport

Valparaiso, Indiana, United States

latitude: 41-27-11N, longitude: 086-59-53W, elevation: 768 ft

Current weather observation

The report was made 37 minutes ago, at 18:56 UTC
Wind 12 mph from the North with gusts up to 23 mph
Temperature 39°F
Humidity 70%
Pressure 30.28 in. Hg
Visibility: 10 miles
Overcast at a height of 1900 ft

METAR: KVPZ 241856Z AUTO 35010G20KT 10SM OVC019 04/M01 A3028 RMK AO2 SLP261 T00441006

Time: 14:33 (19:33 UTC)


TAF: missing

Weather observations and forecasts of more than 4000 airports (METAR and TAF reports).

The available stations are represented by yellow and red dots on the map.

Hover mouse over dot to see the name of the station.

Then click to see weather observations and forecasts.

To change the map : click on the green buttons with a black cross to zoom in, on the green button with a dash to zoom out, or on the green arrows for adjacent maps.


METAR-TAF: